Flood watches and warnings may be in place at some locations. For the latest rainfall, river conditions, flood watches and warnings see BoM.

Forecasts are only available for sites displaying the forecast symbol.

Some water levels are actually in metres AHD (Australian Height Datum), click individual sites for more details.

Scroll for more >

River gauges, storages, and weirs in the Murray–Darling Basin

Type Locationsort descending River Water level Flow Volume Release Water temp Salinity Rainfall
River Gauge Albury (Union Bridge) Murray 1.04 m 17/05/2022 23:00 Not measured Not measured Not measured 15.6°C 17/05/2022 23:00 59.5 μS/cm 17/05/2022 23:00 Not measured Full data
River Gauge Balranald Murrumbidgee 4.93 m 17/05/2022 22:00 6539 ML/Day 17/05/2022 22:00 Not measured Not measured 15.5°C 17/05/2022 22:00 140.3 μS/cm 17/05/2022 22:00 Not measured Full data
River Gauge Bandiana Kiewa 1.43 m 17/05/2022 22:00 1084 ML/Day 17/05/2022 22:00 Not measured Not measured 13.6°C 17/05/2022 22:00 39.1 μS/cm 17/05/2022 22:00 Not measured Full data
River Gauge Barmah Choke Murray 1.85 m 17/05/2022 22:00 4552 ML/Day 17/05/2022 22:00 Not measured Not measured Not measured Not measured Not measured Full data
River Gauge Biggara Murray 0.54 m 17/05/2022 23:00 770 ML/Day 17/05/2022 23:00 Not measured Not measured 11.9°C 17/05/2022 23:00 39.2 μS/cm 17/05/2022 23:00 0.00 mm 17/05/2022 23:00 Full data
River Gauge Bringenbrong Bridge Murray 1.74 m 17/05/2022 23:00 5244 ML/Day 17/05/2022 23:00 Not measured Not measured Not measured Not measured Not measured Full data
River Gauge Burtundy Darling 5.55 m 17/05/2022 22:00 12385 ML/Day 17/05/2022 22:00 Not measured Not measured 16.5°C 17/05/2022 22:00 320.3 μS/cm 17/05/2022 8:00 Not measured Full data
River Gauge Colemans Mitta 1.16 m 17/05/2022 22:00 480 ML/Day 17/05/2022 22:00 Not measured Not measured 10.2°C 17/05/2022 22:00 57.7 μS/cm 17/05/2022 22:00 Not measured Full data
River Gauge Colemans Mitta 1.16 m 17/05/2022 22:00 480 ML/Day 17/05/2022 22:00 Not measured Not measured 10.2°C 17/05/2022 22:00 57.7 μS/cm 17/05/2022 22:00 Not measured Full data
River Gauge Colignan Murray 2.41 m 17/05/2022 22:00 10240 ML/Day 17/05/2022 22:00 Not measured Not measured 15.6°C 17/05/2022 22:00 113.4 μS/cm 17/05/2022 22:00 Not measured Full data
River Gauge Corowa Murray 1.02 m 17/05/2022 23:00 3354 ML/Day 17/05/2022 23:00 Not measured Not measured 15.4°C 17/05/2022 23:00 74.7 μS/cm 17/05/2022 23:00 Not measured Full data
Storage Dartmouth Dam Mitta 482.14 m 17/05/2022 22:00 Not measured 3608 GL 17/05/2022 22:00 Not measured Not measured Not measured Not measured Full data
Storage Dartmouth Dam Mitta 482.14 m 17/05/2022 22:00 Not measured 3608 GL 17/05/2022 22:00 Not measured Not measured Not measured Not measured Full data
River Gauge Doctors Point Murray 2 m 17/05/2022 23:00 3978 ML/Day 17/05/2022 23:00 Not measured Not measured 16.2°C 17/05/2022 23:00 63.1 μS/cm 17/05/2022 23:00 Not measured Full data
River Gauge Echuca Wharf Murray 86.68 m 17/05/2022 22:00 Not measured Not measured Not measured Not measured Not measured Not measured Full data
River Gauge Edward Escape Wakool 0.45 m 17/05/2022 22:00 221 ML/Day 17/05/2022 22:00 Not measured Not measured 15.9°C 17/05/2022 22:00 72.5 μS/cm 17/05/2022 8:00 Not measured Full data
River Gauge Edward River Offtake Murray 2.08 m 17/05/2022 23:00 1112 ML/Day 17/05/2022 23:00 Not measured Not measured 15.7°C 17/05/2022 22:00 66 μS/cm 17/05/2022 8:00 Not measured Full data
Weirs Euston Weir Downstream Murray 43.88 m 17/05/2022 22:00 11819 ML/Day 17/05/2022 22:00 Not measured Not measured 15.3°C 17/05/2022 22:00 118.1 μS/cm 17/05/2022 22:00 Not measured Full data
Weirs Euston Weir Upstream Murray 47.64 m 17/05/2022 8:00 Not measured 37 GL 17/05/2022 8:00 Not measured Not measured Not measured 145.9 mm 5/03/2020 9:00 Full data
River Gauge Flow to South Australia Murray Not measured Not measured Not measured 23233 ML/d17/05/2022 8:00 Not measured Not measured Not measured Full data
River Gauge Frenchman Creek Murray 27.53 m 17/05/2022 8:00 Not measured Not measured 852.1 ML/d17/05/2022 8:00 Not measured Not measured Not measured Full data
River Gauge Gulpa Creek Offtake Murray 2.22 m 17/05/2022 22:00 199 ML/Day 17/05/2022 22:00 Not measured Not measured Not measured Not measured Not measured Full data
River Gauge Hinnomunjie Mitta 0.92 m 17/05/2022 22:00 1056 ML/Day 17/05/2022 22:00 Not measured Not measured 8.8°C 17/05/2022 22:00 50.3 μS/cm 17/05/2022 22:00 0.00 mm 17/05/2022 22:00 Full data
Storage Hume Dam Murray 190.51 m 17/05/2022 23:00 Not measured 2713 GL 17/05/2022 23:00 3048.3 ML/d17/05/2022 23:00 Not measured Not measured 0.00 mm 17/05/2022 23:00 Full data
River Gauge Jingellic Murray 2.03 m 17/05/2022 21:00 7153 ML/Day 17/05/2022 21:00 Not measured Not measured 13.1°C 17/05/2022 22:00 43.6 μS/cm 17/05/2022 22:00 0.00 mm 17/05/2022 22:00 Full data
River Gauge Kerang Loddon 0.45 m 17/05/2022 22:00 368 ML/Day 17/05/2022 22:00 Not measured Not measured 15.3°C 17/05/2022 22:00 127.6 μS/cm 17/05/2022 22:00 Not measured Full data
River Gauge Lake Albert Murray 0.72 m 17/05/2022 23:00 Not measured 266 GL 17/05/2022 23:00 Not measured Not measured Not measured Not measured Full data
River Gauge Lake Alexandrina Murray 0.64 m 17/05/2022 23:00 Not measured 1543 GL 17/05/2022 23:00 Not measured Not measured 364 μS/cm 17/05/2022 21:00 Not measured Full data
Storage Lake Victoria Murray 23.91 m 17/05/2022 21:00 Not measured 336 GL 17/05/2022 21:00 Not measured 15.1°C 17/05/2022 21:00 203.2 μS/cm 17/05/2022 21:00 Not measured Full data
Weirs Lock 1 Downstream Murray 1.62 m 17/05/2022 21:00 Not measured Not measured 23232 ML/d17/05/2022 8:00 Not measured Not measured Not measured Full data
Weirs Lock 1 Upstream Murray 3.26 m 17/05/2022 21:00 Not measured Not measured Not measured 15.6°C 17/05/2022 21:00 241.4 μS/cm 17/05/2022 21:00 Not measured Full data
Weirs Lock 2 Downstream Murray 4.71 m 17/05/2022 22:00 Not measured Not measured Not measured Not measured Not measured Not measured Full data
Weirs Lock 2 Upstream Murray 6.16 m 17/05/2022 22:00 Not measured Not measured Not measured 15.6°C 17/05/2022 22:00 238.3 μS/cm 17/05/2022 22:00 Not measured Full data
Weirs Lock 3 Downstream Murray 7.55 m 17/05/2022 21:00 Not measured Not measured Not measured Not measured Not measured Not measured Full data
Weirs Lock 3 Upstream Murray 9.83 m 17/05/2022 21:00 Not measured Not measured Not measured Not measured Not measured Not measured Full data
Weirs Lock 4 Downstream Murray 11.81 m 17/05/2022 21:00 Not measured Not measured Not measured Not measured Not measured Not measured Full data
Weirs Lock 4 Upstream Murray 13.19 m 17/05/2022 21:00 Not measured Not measured Not measured Not measured Not measured Not measured Full data
Weirs Lock 5 Downstream Murray 14.3 m 17/05/2022 21:00 Not measured Not measured Not measured Not measured Not measured Not measured Full data
Weirs Lock 5 Upstream Murray 16.29 m 17/05/2022 21:00 Not measured Not measured Not measured 16°C 17/05/2022 21:00 225.4 μS/cm 17/05/2022 21:00 Not measured Full data
Weirs Lock 6 Downstream Murray 17.54 m 17/05/2022 21:00 Not measured Not measured Not measured Not measured Not measured Not measured Full data
Weirs Lock 6 Upstream Murray 19.21 m 17/05/2022 21:00 Not measured Not measured Not measured 16.1°C 17/05/2022 21:00 221.3 μS/cm 17/05/2022 21:00 Not measured Full data
Weirs Lock 7 Downstream Murray 22.44 m 17/05/2022 21:00 Not measured Not measured Not measured Not measured Not measured Not measured Full data
Weirs Lock 7 Upstream Murray 22.47 m 17/05/2022 21:00 Not measured Not measured Not measured 16.2°C 17/05/2022 21:00 222.6 μS/cm 17/05/2022 21:00 Not measured Full data
Weirs Lock 8 Upstream Murray 24.59 m 17/05/2022 21:00 Not measured Not measured Not measured 16.2°C 17/05/2022 21:00 233.4 μS/cm 17/05/2022 21:00 Not measured Full data
Weirs Lock 9 Downstream Murray 25.45 m 17/05/2022 21:00 Not measured Not measured Not measured Not measured Not measured Not measured Full data
Weirs Lock 9 Upstream Murray 27.39 m 17/05/2022 21:00 Not measured Not measured Not measured 16.3°C 17/05/2022 21:00 233.6 μS/cm 17/05/2022 21:00 Not measured Full data
River Gauge McCoy Bridge Goulburn 1.51 m 17/05/2022 22:00 1025 ML/Day 17/05/2022 22:00 Not measured Not measured 14.5°C 17/05/2022 22:00 104 μS/cm 17/05/2022 22:00 Not measured Full data
Storage Menindee Lakes Darling Not measured Not measured 1963 GL 17/05/2022 9:00 Not measured Not measured Not measured Not measured Full data
Weirs Mildura Weir downstream Murray 31.06 m 17/05/2022 22:00 Not measured Not measured Not measured 16.2°C 17/05/2022 22:00 116.3 μS/cm 17/05/2022 22:00 Not measured Full data
River Gauge Morgan Downstream Murray Not measured Not measured Not measured 21114.5 ML/d17/05/2022 21:00 Not measured 245.9 μS/cm 17/05/2022 19:00 Not measured Full data
River Gauge Mulwala Canal Murray Not measured Not measured Not measured 10.4 ML/d17/05/2022 9:00 Not measured Not measured Not measured Full data
River Gauge Mundoo Barrage Murray 0.63 m 17/05/2022 8:00 Not measured Not measured Not measured Not measured Not measured Not measured Full data
River Gauge Murray Bridge Murray 0.68 m 17/05/2022 22:00 Not measured Not measured Not measured 16°C 17/05/2022 22:00 263.1 μS/cm 17/05/2022 22:00 Not measured Full data
River Gauge Peechelba Ovens 127.24 m 17/05/2022 22:00 1756 ML/Day 17/05/2022 22:00 Not measured Not measured 15°C 17/05/2022 22:00 58.5 μS/cm 17/05/2022 22:00 Not measured Full data
River Gauge Pinegrove Murray 1.42 m 17/05/2022 23:00 776 ML/Day 17/05/2022 23:00 Not measured Not measured 12.7°C 17/05/2022 23:00 73.2 μS/cm 17/05/2022 23:00 0.00 mm 17/05/2022 23:00 Full data
River Gauge Redcliffs Murray Not measured Not measured Not measured Not measured Not measured 119.4 μS/cm 17/05/2022 8:00 Not measured Full data
River Gauge Rochester Campaspe 1.67 m 17/05/2022 22:00 61 ML/Day 17/05/2022 22:00 Not measured Not measured 14.3°C 17/05/2022 22:00 315.7 μS/cm 17/05/2022 22:00 0.00 mm 17/05/2022 22:00 Full data
River Gauge Rufus River Murray 22.45 m 17/05/2022 8:00 Not measured Not measured 2019.5 ML/d17/05/2022 8:00 Not measured 204.9 μS/cm 17/05/2022 8:00 Not measured Full data
Weirs Steven's Weir Downstream Edward 1.2 m 17/05/2022 22:00 928 ML/Day 17/05/2022 22:00 Not measured Not measured 15.8°C 17/05/2022 22:00 85 μS/cm 17/05/2022 8:00 Not measured Full data
Weirs Steven's Weir Upstream Edward 4.55 m 17/05/2022 23:00 Not measured Not measured Not measured Not measured Not measured Not measured Full data
River Gauge Stoney Crossing Murray 1.46 m 17/05/2022 22:00 571 ML/Day 17/05/2022 22:00 Not measured 976.2 ML/d14/01/2022 7:45 15.9°C 17/05/2022 22:00 154.2 μS/cm 17/05/2022 22:00 Not measured Full data
River Gauge Swan Hill Murray 1.41 m 17/05/2022 22:00 7409 ML/Day 17/05/2022 22:00 Not measured Not measured 15.2°C 17/05/2022 22:00 82.5 μS/cm 17/05/2022 22:00 Not measured Full data
River Gauge Tallandoon Mitta 1.58 m 17/05/2022 22:00 928 ML/Day 17/05/2022 22:00 Not measured Not measured 12.3°C 17/05/2022 22:00 46.6 μS/cm 17/05/2022 22:00 Not measured Full data
River Gauge Tallandoon Mitta 1.58 m 17/05/2022 22:00 928 ML/Day 17/05/2022 22:00 Not measured Not measured 12.3°C 17/05/2022 22:00 46.6 μS/cm 17/05/2022 22:00 Not measured Full data
River Gauge Tauwitchere Barrage Murray 0.67 m 17/05/2022 21:00 Not measured Not measured Not measured Not measured Not measured Not measured Full data
River Gauge Tocumwal Murray 1.56 m 17/05/2022 22:00 5904 ML/Day 17/05/2022 22:00 Not measured Not measured 15.4°C 17/05/2022 22:00 67.1 μS/cm 17/05/2022 22:00 Not measured Full data
River Gauge Torrumbarry Headworks Murray 86.05 m 17/05/2022 22:00 Not measured Not measured 161 ML/d17/05/2022 21:00 Not measured Not measured Not measured Full data
Weirs Torrumbarry Weir Downstream Murray 2.25 m 17/05/2022 22:00 6568 ML/Day 17/05/2022 22:00 Not measured Not measured 15.5°C 17/05/2022 22:00 78.3 μS/cm 17/05/2022 22:00 Not measured Full data
Weirs Torrumbarry Weir Upstream Murray 86.05 m 17/05/2022 22:00 Not measured 37 GL 17/05/2022 9:00 Not measured 15.2°C 17/05/2022 9:00 9.8 μS/cm 17/05/2022 15:00 0.00 mm 17/05/2022 9:00 Full data
River Gauge Wakool Canal Wakool 0.49 m 17/05/2022 23:00 Not measured Not measured 3.1 ML/d17/05/2022 9:00 Not measured Not measured Not measured Full data
River Gauge Wakool Junction Murray 3.13 m 17/05/2022 22:00 8670 ML/Day 17/05/2022 22:00 Not measured Not measured 15.2°C 17/05/2022 22:00 90.9 μS/cm 17/05/2022 22:00 Not measured Full data
River Gauge Weir 32 Upstream Darling 5.46 m 17/05/2022 22:00 16142 ML/Day 17/05/2022 22:00 Not measured Not measured 18°C 17/05/2022 22:00 297.6 μS/cm 17/05/2022 22:00 Not measured Full data
Weirs Wentworth Weir Murray 28.71 m 17/05/2022 22:00 Not measured Not measured 20588 ML/d17/05/2022 9:00 Not measured 136.0 μS/cm 28/09/2021 7:45 Not measured Full data
River Gauge Wilcania Darling 8.18 m 17/05/2022 22:00 22615 ML/Day 17/05/2022 22:00 Not measured Not measured 18°C 17/05/2022 22:00 242.7 μS/cm 17/05/2022 8:00 Not measured Full data
River Gauge Yarrawonga Main Channel Murray 0.00 m 17/05/2022 22:00 Not measured Not measured -10.9 ML/d17/05/2022 22:00 Not measured Not measured Not measured Full data
Weirs Yarrawonga Weir Downstream Murray 1.42 m 17/05/2022 23:00 8563 ML/Day 17/05/2022 23:00 Not measured Not measured 15.4°C 17/05/2022 23:00 71.8 μS/cm 17/05/2022 8:00 Not measured Full data
Weirs Yarrawonga Weir Upstream Murray 123.73 m 17/05/2022 22:00 Not measured Not measured Not measured Not measured Not measured 0.00 mm 17/05/2022 22:00 Full data